Nearby METAR Reports

 

KSNK - Snyder/Winston, Texas, USA
Distance from station: SSE 25mi, 41km
Updated: Tue, 15-Oct-2019 5:55am CDT
Clear
Clear
 Wind from S
Wind: S 6 mph , 9 km/h
Temperature: 64°F , 18°C
Dew Point: 57°F , 14°C
Humidity: 78%
Barometer: 29.95 inHg , 1014.2 hPa
Clouds: Clear
Visibility: 10 miles , 16 km
2019/10/15 10:55 KSNK 151055Z AUTO 19005KT 10SM CLR 18/14 A2995 RMK AO2 T01790142
KSWW - Sweetwater, Texas, USA
Distance from station: SE 56mi, 90km
Updated: Tue, 15-Oct-2019 5:55am CDT
Clear
Clear
 Wind from calm
Wind: Calm
Temperature: 72°F , 22°C
Dew Point: 61°F , 16°C
Humidity: 69%
Barometer: 29.96 inHg , 1014.6 hPa
Clouds: Clear
Visibility: 10 miles , 16 km
2019/10/15 10:55 KSWW 151055Z AUTO 00000KT 10SM CLR 22/16 A2996 RMK AO2 T02170155
 
KLBB - Lubbock, Texas, USA
Distance from station: NW 59mi, 94km
Updated: Tue, 15-Oct-2019 5:53am CDT
Clear
Clear
 Wind from WSW
Wind: WSW 7 mph , 11 km/h
Temperature: 57°F , 14°C
Dew Point: 52°F , 11°C
Humidity: 82%
Barometer: 29.96 inHg , 1014.6 hPa
Clouds: Clear
Visibility: 10 miles , 16 km
2019/10/15 10:53 KLBB 151053Z 25006KT 10SM CLR 14/11 A2996 RMK AO2 SLP101 T01390111 $
KPVW - Plainview, Texas, USA
Distance from station: NNW 85mi, 137km
Updated: Tue, 15-Oct-2019 5:55am CDT
Clear
Clear
 Wind from W
Wind: W 7 mph , 11 km/h
Temperature: 52°F , 11°C
Dew Point: 48°F , 9°C
Humidity: 88%
Barometer: 29.95 inHg , 1014.2 hPa
Clouds: Clear
Visibility: 10 miles , 16 km
2019/10/15 10:55 KPVW 151055Z AUTO 27006KT 10SM CLR 11/09 A2995 RMK AO2 T01110092
 
KDYS - Dyess Afb/Abilen, Texas, USA
Distance from station: ESE 88mi, 141km
Updated: Tue, 15-Oct-2019 5:56am CDT
Mostly cloudy
Mostly cloudy
 Wind from S
Wind: S 6 mph , 9 km/h
Temperature: 70°F , 21°C
Dew Point: 57°F , 14°C
Humidity: 64%
Barometer: 29.90 inHg , 1012.5 hPa
Clouds: Mostly cloudy
Visibility: 10 miles , 16 km
Cloud details: Mostly cloudy 17000 ft
Mostly cloudy 22000 ft
2019/10/15 10:56 KDYS 151056Z AUTO 17005KT 10SM BKN170 BKN220 21/14 A2990 RMK AO2 SLP089 T02070143 PNO FZRANO $
KGNC - Seminole, Texas, USA
Distance from station: WSW 89mi, 144km
Updated: Tue, 15-Oct-2019 5:55am CDT
Clear
Clear
 Wind from SW
Wind: SW 6 mph , 9 km/h
Temperature: 63°F , 17°C
Dew Point: 59°F , 15°C
Humidity: 88%
Barometer: 30.02 inHg , 1016.6 hPa
Clouds: Clear
Visibility: 10 miles , 16 km
2019/10/15 10:55 KGNC 151055Z AUTO 23005KT 10SM CLR 17/15 A3002 RMK AO2 T01650150
 
KE11 - Andrews, Texas, USA
Distance from station: WSW 93mi, 149km
Updated: Tue, 15-Oct-2019 5:55am CDT
Clear
Clear
 Wind from W
Wind: W 5 mph , 7 km/h
Temperature: 64°F , 18°C
Dew Point: 61°F , 16°C
Humidity: 88%
Barometer: 29.98 inHg , 1015.2 hPa
Clouds: Clear
Visibility: 10 miles , 16 km
2019/10/15 10:55 KE11 151055Z AUTO 26004KT 10SM CLR 18/16 A2998 RMK AO2 T01830158
KABI - Abilene, Texas, USA
Distance from station: ESE 96mi, 154km
Updated: Tue, 15-Oct-2019 5:52am CDT
Clear
Clear
 Wind from SSE
Wind: SSE 8 mph , 13 km/h
Temperature: 70°F , 21°C
Dew Point: 63°F , 17°C
Humidity: 78%
Barometer: 29.91 inHg , 1012.9 hPa
Clouds: Clear
Visibility: 10 miles , 16 km
2019/10/15 10:52 KABI 151052Z 15007KT 10SM CLR 21/17 A2991 RMK AO2 RAB43E52 SLP107 P0000 T02110167
 
KMAF - Midland, Texas, USA
Distance from station: SW 96mi, 154km
Updated: Tue, 15-Oct-2019 5:53am CDT
Few Clouds
Few Clouds
 Wind from SW
Wind: SW 9 mph , 15 km/h
Temperature: 70°F , 21°C
Dew Point: 57°F , 14°C
Humidity: 64%
Barometer: 29.97 inHg , 1014.9 hPa
Clouds: Few Clouds
Visibility: 10 miles , 16 km
Cloud details: Few Clouds 12000 ft
2019/10/15 10:53 KMAF 151053Z 23008KT 10SM FEW120 21/14 A2997 RMK AO2 SLP105 T02110139
KCDS - Childress, Texas, USA
Distance from station: NNE 110mi, 177km
Updated: Tue, 15-Oct-2019 5:53am CDT
Clear
Clear
 Wind from SW
Wind: SW 7 mph , 11 km/h
Temperature: 63°F , 17°C
Dew Point: 57°F , 14°C
Humidity: 83%
Barometer: 29.88 inHg , 1011.9 hPa
Clouds: Clear
Visibility: 10 miles , 16 km
2019/10/15 10:53 KCDS 151053Z AUTO 22006KT 10SM CLR 17/14 A2988 RMK AO2 SLP095 T01670144 $
 
KSJT - San Angelo, Texas, USA
Distance from station: SSE 121mi, 194km
Updated: Tue, 15-Oct-2019 5:51am CDT
Mostly cloudy
Mostly cloudy
 Wind from calm
Wind: Calm
Temperature: 64°F , 18°C
Dew Point: 61°F , 16°C
Humidity: 88%
Barometer: 29.92 inHg , 1013.2 hPa
Clouds: Mostly cloudy
Visibility: 10 miles , 16 km
Cloud details: Mostly cloudy 8000 ft
2019/10/15 10:51 KSJT 151051Z AUTO 00000KT 10SM BKN080 18/16 A2992 RMK AO2 SLP114 T01780156 $
KHOB - Hobbs/Lea Co., New Mexico, USA
Distance from station: WSW 122mi, 196km
Updated: Tue, 15-Oct-2019 5:55am CDT
Clear
Clear
 Wind from WSW
Wind: WSW 6 mph , 9 km/h
Temperature: 61°F , 16°C
Dew Point: 57°F , 14°C
Humidity: 88%
Barometer: 29.99 inHg , 1015.6 hPa
Clouds: Clear
Visibility: 10 miles , 16 km
2019/10/15 10:55 KHOB 151055Z AUTO 25005KT 10SM CLR 16/14 A2999 RMK AO2
 
KCOM - Coleman Muni, Texas, USA
Distance from station: SE 131mi, 212km
Updated: Tue, 15-Oct-2019 5:55am CDT
Clear
Clear
 Wind from calm
Wind: Calm
Temperature: 63°F , 17°C
Dew Point: 59°F , 15°C
Humidity: 88%
Barometer: 29.93 inHg , 1013.5 hPa
Clouds: Clear
Visibility: 10 miles , 16 km
2019/10/15 10:55 KCOM 151055Z AUTO 00000KT 10SM CLR 17/15 A2993 RMK AO2 T01730152
KBKD - Breckenridge, Texas, USA
Distance from station: E 134mi, 215km
Updated: Tue, 15-Oct-2019 5:55am CDT
Mostly cloudy
Mostly cloudy
 
Temperature: 73°F , 23°C
Dew Point: 66°F , 19°C
Humidity: 78%
Barometer: 29.89 inHg , 1012.2 hPa
Clouds: Mostly cloudy
Visibility: 7 miles , 11 km
Cloud details: Mostly cloudy 7500 ft
Mostly cloudy 8500 ft
2019/10/15 10:55 KBKD 151055Z AUTO 7SM BKN075 BKN085 23/19 A2989 RMK AO2 T02270187
 
KF05 - Vernon Wilbarger, Texas, USA
Distance from station: NE 137mi, 220km
Updated: Tue, 15-Oct-2019 5:55am CDT
Clear
Clear
 Wind from S
Wind: S 6 mph , 9 km/h
Temperature: 66°F , 19°C
Dew Point: 63°F , 17°C
Humidity: 88%
Barometer: 29.87 inHg , 1011.5 hPa
Clouds: Clear
Visibility: 10 miles , 16 km
2019/10/15 10:55 KF05 151055Z AUTO 19005KT 10SM CLR 19/17 A2987 RMK AO1 T01860170